sensor_id;sensor_type;location;lat;lon;timestamp;temperature;humidity
7360;DHT22;3720;48.274;7.796;2022-09-12T00:01:16;14.60;99.90
7360;DHT22;3720;48.274;7.796;2022-09-12T00:03:54;14.60;99.90
7360;DHT22;3720;48.274;7.796;2022-09-12T00:06:29;14.60;99.90
7360;DHT22;3720;48.274;7.796;2022-09-12T00:09:03;14.50;99.90
7360;DHT22;3720;48.274;7.796;2022-09-12T00:11:35;14.50;99.90
7360;DHT22;3720;48.274;7.796;2022-09-12T00:14:10;14.50;99.90
7360;DHT22;3720;48.274;7.796;2022-09-12T00:16:42;14.40;99.90
7360;DHT22;3720;48.274;7.796;2022-09-12T00:19:16;14.40;99.90
7360;DHT22;3720;48.274;7.796;2022-09-12T00:21:49;14.30;99.90
7360;DHT22;3720;48.274;7.796;2022-09-12T00:24:21;14.30;99.90
7360;DHT22;3720;48.274;7.796;2022-09-12T00:26:53;14.30;99.90
7360;DHT22;3720;48.274;7.796;2022-09-12T00:29:25;14.30;99.90
7360;DHT22;3720;48.274;7.796;2022-09-12T00:31:57;14.30;99.90
7360;DHT22;3720;48.274;7.796;2022-09-12T00:34:31;14.40;99.90
7360;DHT22;3720;48.274;7.796;2022-09-12T00:37:03;14.50;99.90
7360;DHT22;3720;48.274;7.796;2022-09-12T00:39:35;14.50;99.90
7360;DHT22;3720;48.274;7.796;2022-09-12T00:42:08;14.50;99.90
7360;DHT22;3720;48.274;7.796;2022-09-12T00:44:51;14.50;99.90
7360;DHT22;3720;48.274;7.796;2022-09-12T00:47:25;14.50;99.90
7360;DHT22;3720;48.274;7.796;2022-09-12T00:50:03;14.40;99.90
7360;DHT22;3720;48.274;7.796;2022-09-12T00:52:40;14.30;99.90
7360;DHT22;3720;48.274;7.796;2022-09-12T00:55:16;14.20;99.90
7360;DHT22;3720;48.274;7.796;2022-09-12T00:57:52;14.10;99.90
7360;DHT22;3720;48.274;7.796;2022-09-12T01:00:26;14.00;99.90
7360;DHT22;3720;48.274;7.796;2022-09-12T01:03:01;14.00;99.90
7360;DHT22;3720;48.274;7.796;2022-09-12T01:05:39;14.00;99.90
7360;DHT22;3720;48.274;7.796;2022-09-12T01:08:13;13.90;99.90
7360;DHT22;3720;48.274;7.796;2022-09-12T01:10:46;13.90;99.90
7360;DHT22;3720;48.274;7.796;2022-09-12T01:13:19;13.90;99.90
7360;DHT22;3720;48.274;7.796;2022-09-12T01:15:51;13.90;99.90
7360;DHT22;3720;48.274;7.796;2022-09-12T01:18:27;13.90;99.90
7360;DHT22;3720;48.274;7.796;2022-09-12T01:21:17;13.90;99.90
7360;DHT22;3720;48.274;7.796;2022-09-12T01:24:18;13.80;99.90
7360;DHT22;3720;48.274;7.796;2022-09-12T01:33:13;13.70;99.90
7360;DHT22;3720;48.274;7.796;2022-09-12T01:36:02;13.60;99.90
7360;DHT22;3720;48.274;7.796;2022-09-12T01:38:41;13.50;99.90
7360;DHT22;3720;48.274;7.796;2022-09-12T01:41:22;13.50;99.90
7360;DHT22;3720;48.274;7.796;2022-09-12T01:44:01;13.40;99.90
7360;DHT22;3720;48.274;7.796;2022-09-12T01:46:39;13.50;99.90
7360;DHT22;3720;48.274;7.796;2022-09-12T01:49:18;13.40;99.90
7360;DHT22;3720;48.274;7.796;2022-09-12T01:51:59;13.40;99.90
7360;DHT22;3720;48.274;7.796;2022-09-12T01:54:36;13.40;99.90
7360;DHT22;3720;48.274;7.796;2022-09-12T01:57:11;13.40;99.90
7360;DHT22;3720;48.274;7.796;2022-09-12T01:59:47;13.30;99.90
7360;DHT22;3720;48.274;7.796;2022-09-12T02:02:24;13.40;99.90
7360;DHT22;3720;48.274;7.796;2022-09-12T02:05:03;13.30;99.90
7360;DHT22;3720;48.274;7.796;2022-09-12T02:07:39;13.30;99.90
7360;DHT22;3720;48.274;7.796;2022-09-12T02:10:15;13.30;99.90
7360;DHT22;3720;48.274;7.796;2022-09-12T02:12:49;13.30;99.90
7360;DHT22;3720;48.274;7.796;2022-09-12T02:15:27;13.20;99.90
7360;DHT22;3720;48.274;7.796;2022-09-12T02:18:01;13.20;99.90
7360;DHT22;3720;48.274;7.796;2022-09-12T02:20:37;13.20;99.90
7360;DHT22;3720;48.274;7.796;2022-09-12T02:23:14;13.20;99.90
7360;DHT22;3720;48.274;7.796;2022-09-12T02:25:49;13.20;99.90
7360;DHT22;3720;48.274;7.796;2022-09-12T02:28:25;13.10;99.90
7360;DHT22;3720;48.274;7.796;2022-09-12T02:31:05;13.10;99.90
7360;DHT22;3720;48.274;7.796;2022-09-12T02:33:46;13.10;99.90
7360;DHT22;3720;48.274;7.796;2022-09-12T02:36:31;13.20;99.90
7360;DHT22;3720;48.274;7.796;2022-09-12T02:39:06;13.20;99.90
7360;DHT22;3720;48.274;7.796;2022-09-12T02:41:38;13.10;99.90
7360;DHT22;3720;48.274;7.796;2022-09-12T02:44:09;13.10;99.90
7360;DHT22;3720;48.274;7.796;2022-09-12T02:46:43;13.10;99.90
7360;DHT22;3720;48.274;7.796;2022-09-12T02:49:17;13.10;99.90
7360;DHT22;3720;48.274;7.796;2022-09-12T02:51:50;13.10;99.90
7360;DHT22;3720;48.274;7.796;2022-09-12T02:54:23;13.10;99.90
7360;DHT22;3720;48.274;7.796;2022-09-12T02:56:55;13.20;99.90
7360;DHT22;3720;48.274;7.796;2022-09-12T02:59:28;13.20;99.90
7360;DHT22;3720;48.274;7.796;2022-09-12T03:02:11;13.10;99.90
7360;DHT22;3720;48.274;7.796;2022-09-12T03:04:52;13.10;99.90
7360;DHT22;3720;48.274;7.796;2022-09-12T03:07:37;13.10;99.90
7360;DHT22;3720;48.274;7.796;2022-09-12T03:10:23;13.10;99.90
7360;DHT22;3720;48.274;7.796;2022-09-12T03:13:02;13.20;99.90
7360;DHT22;3720;48.274;7.796;2022-09-12T03:15:43;13.20;99.90
7360;DHT22;3720;48.274;7.796;2022-09-12T03:18:27;13.30;99.90
7360;DHT22;3720;48.274;7.796;2022-09-12T03:21:05;13.20;99.90
7360;DHT22;3720;48.274;7.796;2022-09-12T03:23:49;13.10;99.90
7360;DHT22;3720;48.274;7.796;2022-09-12T03:26:28;13.00;99.90
7360;DHT22;3720;48.274;7.796;2022-09-12T03:29:03;12.90;99.90
7360;DHT22;3720;48.274;7.796;2022-09-12T03:31:36;12.80;99.90
7360;DHT22;3720;48.274;7.796;2022-09-12T03:34:08;12.70;99.90
7360;DHT22;3720;48.274;7.796;2022-09-12T03:36:42;12.60;99.90
7360;DHT22;3720;48.274;7.796;2022-09-12T03:39:16;12.60;99.90
7360;DHT22;3720;48.274;7.796;2022-09-12T03:41:48;12.60;99.90
7360;DHT22;3720;48.274;7.796;2022-09-12T03:44:21;12.60;99.90
7360;DHT22;3720;48.274;7.796;2022-09-12T03:46:52;12.50;99.90
7360;DHT22;3720;48.274;7.796;2022-09-12T03:49:25;12.50;99.90
7360;DHT22;3720;48.274;7.796;2022-09-12T03:51:57;12.60;99.90
7360;DHT22;3720;48.274;7.796;2022-09-12T03:54:30;12.50;99.90
7360;DHT22;3720;48.274;7.796;2022-09-12T03:57:03;12.60;99.90
7360;DHT22;3720;48.274;7.796;2022-09-12T03:59:35;12.60;99.90
7360;DHT22;3720;48.274;7.796;2022-09-12T04:02:07;12.60;99.90
7360;DHT22;3720;48.274;7.796;2022-09-12T04:04:42;12.60;99.90
7360;DHT22;3720;48.274;7.796;2022-09-12T04:07:14;12.60;99.90
7360;DHT22;3720;48.274;7.796;2022-09-12T04:09:48;12.60;99.90
7360;DHT22;3720;48.274;7.796;2022-09-12T04:12:20;12.50;99.90
7360;DHT22;3720;48.274;7.796;2022-09-12T04:14:51;12.50;99.90
7360;DHT22;3720;48.274;7.796;2022-09-12T04:17:23;12.60;99.90
7360;DHT22;3720;48.274;7.796;2022-09-12T04:19:55;12.70;99.90
7360;DHT22;3720;48.274;7.796;2022-09-12T04:22:27;12.70;99.90
7360;DHT22;3720;48.274;7.796;2022-09-12T04:25:03;12.70;99.90
7360;DHT22;3720;48.274;7.796;2022-09-12T04:27:35;12.60;99.90
7360;DHT22;3720;48.274;7.796;2022-09-12T04:30:08;12.70;99.90
7360;DHT22;3720;48.274;7.796;2022-09-12T04:32:40;12.70;99.90
7360;DHT22;3720;48.274;7.796;2022-09-12T04:35:12;12.90;99.90
7360;DHT22;3720;48.274;7.796;2022-09-12T04:37:44;12.80;99.90
7360;DHT22;3720;48.274;7.796;2022-09-12T04:40:18;12.80;99.90
7360;DHT22;3720;48.274;7.796;2022-09-12T04:42:50;12.80;99.90
7360;DHT22;3720;48.274;7.796;2022-09-12T04:45:22;12.70;99.90
7360;DHT22;3720;48.274;7.796;2022-09-12T04:47:54;12.70;99.90
7360;DHT22;3720;48.274;7.796;2022-09-12T04:50:26;13.40;99.90
7360;DHT22;3720;48.274;7.796;2022-09-12T04:52:58;14.00;99.90
7360;DHT22;3720;48.274;7.796;2022-09-12T04:55:33;14.00;99.90
7360;DHT22;3720;48.274;7.796;2022-09-12T04:58:05;13.80;99.90
7360;DHT22;3720;48.274;7.796;2022-09-12T05:00:37;13.60;99.90
7360;DHT22;3720;48.274;7.796;2022-09-12T05:03:09;13.40;99.90
7360;DHT22;3720;48.274;7.796;2022-09-12T05:05:41;13.20;99.90
7360;DHT22;3720;48.274;7.796;2022-09-12T05:08:13;13.10;99.90
7360;DHT22;3720;48.274;7.796;2022-09-12T05:10:46;13.00;99.90
7360;DHT22;3720;48.274;7.796;2022-09-12T05:13:18;12.90;99.90
7360;DHT22;3720;48.274;7.796;2022-09-12T05:15:56;12.80;99.90
7360;DHT22;3720;48.274;7.796;2022-09-12T05:18:31;12.80;99.90
7360;DHT22;3720;48.274;7.796;2022-09-12T05:21:05;12.70;99.90
7360;DHT22;3720;48.274;7.796;2022-09-12T05:23:37;12.70;99.90
7360;DHT22;3720;48.274;7.796;2022-09-12T05:26:12;12.60;99.90
7360;DHT22;3720;48.274;7.796;2022-09-12T05:28:45;12.60;99.90
7360;DHT22;3720;48.274;7.796;2022-09-12T05:31:19;12.60;99.90
7360;DHT22;3720;48.274;7.796;2022-09-12T05:33:53;12.60;99.90
7360;DHT22;3720;48.274;7.796;2022-09-12T05:36:27;12.50;99.90
7360;DHT22;3720;48.274;7.796;2022-09-12T05:38:59;12.50;99.90
7360;DHT22;3720;48.274;7.796;2022-09-12T05:41:33;12.50;99.90
7360;DHT22;3720;48.274;7.796;2022-09-12T05:44:06;12.50;99.90
7360;DHT22;3720;48.274;7.796;2022-09-12T05:46:43;12.50;99.90
7360;DHT22;3720;48.274;7.796;2022-09-12T05:49:18;12.50;99.90
7360;DHT22;3720;48.274;7.796;2022-09-12T05:51:50;12.60;99.90
7360;DHT22;3720;48.274;7.796;2022-09-12T05:54:22;12.60;99.90
7360;DHT22;3720;48.274;7.796;2022-09-12T05:56:55;12.60;99.90
7360;DHT22;3720;48.274;7.796;2022-09-12T05:59:27;12.70;99.90
7360;DHT22;3720;48.274;7.796;2022-09-12T06:01:59;12.70;99.90
7360;DHT22;3720;48.274;7.796;2022-09-12T06:04:31;12.80;99.90
7360;DHT22;3720;48.274;7.796;2022-09-12T06:07:03;12.90;99.90
7360;DHT22;3720;48.274;7.796;2022-09-12T06:09:35;12.90;99.90
7360;DHT22;3720;48.274;7.796;2022-09-12T06:12:08;13.00;99.90
7360;DHT22;3720;48.274;7.796;2022-09-12T06:14:41;13.10;99.90
7360;DHT22;3720;48.274;7.796;2022-09-12T06:17:12;13.10;99.90
7360;DHT22;3720;48.274;7.796;2022-09-12T06:19:44;13.20;99.90
7360;DHT22;3720;48.274;7.796;2022-09-12T06:22:16;13.30;99.90
7360;DHT22;3720;48.274;7.796;2022-09-12T06:24:49;13.50;99.90
7360;DHT22;3720;48.274;7.796;2022-09-12T06:27:22;13.60;99.90
7360;DHT22;3720;48.274;7.796;2022-09-12T06:29:54;13.80;99.90
7360;DHT22;3720;48.274;7.796;2022-09-12T06:32:29;13.90;99.90
7360;DHT22;3720;48.274;7.796;2022-09-12T06:35:01;14.00;99.90
7360;DHT22;3720;48.274;7.796;2022-09-12T06:37:34;14.10;99.90
7360;DHT22;3720;48.274;7.796;2022-09-12T06:40:07;14.30;99.90
7360;DHT22;3720;48.274;7.796;2022-09-12T06:42:41;14.30;99.90
7360;DHT22;3720;48.274;7.796;2022-09-12T06:45:13;14.20;99.90
7360;DHT22;3720;48.274;7.796;2022-09-12T06:47:46;14.40;99.90
7360;DHT22;3720;48.274;7.796;2022-09-12T06:50:17;14.50;99.90
7360;DHT22;3720;48.274;7.796;2022-09-12T06:52:50;14.40;99.90
7360;DHT22;3720;48.274;7.796;2022-09-12T06:55:21;14.30;99.90
7360;DHT22;3720;48.274;7.796;2022-09-12T06:57:55;14.30;99.90
7360;DHT22;3720;48.274;7.796;2022-09-12T07:00:27;14.30;99.90
7360;DHT22;3720;48.274;7.796;2022-09-12T07:02:59;14.30;99.90
7360;DHT22;3720;48.274;7.796;2022-09-12T07:05:32;14.30;99.90
7360;DHT22;3720;48.274;7.796;2022-09-12T07:08:04;14.50;99.90
7360;DHT22;3720;48.274;7.796;2022-09-12T07:10:36;14.50;99.90
7360;DHT22;3720;48.274;7.796;2022-09-12T07:13:09;14.60;99.90
7360;DHT22;3720;48.274;7.796;2022-09-12T07:15:41;14.60;99.90
7360;DHT22;3720;48.274;7.796;2022-09-12T07:18:13;14.70;99.90
7360;DHT22;3720;48.274;7.796;2022-09-12T07:20:45;14.80;99.90
7360;DHT22;3720;48.274;7.796;2022-09-12T07:23:17;14.80;99.90
7360;DHT22;3720;48.274;7.796;2022-09-12T07:25:51;14.90;99.90
7360;DHT22;3720;48.274;7.796;2022-09-12T07:28:29;15.00;99.90
7360;DHT22;3720;48.274;7.796;2022-09-12T07:31:05;15.10;99.90
7360;DHT22;3720;48.274;7.796;2022-09-12T07:33:39;15.30;99.90
7360;DHT22;3720;48.274;7.796;2022-09-12T07:36:13;15.30;99.90
7360;DHT22;3720;48.274;7.796;2022-09-12T07:38:46;15.40;99.90
7360;DHT22;3720;48.274;7.796;2022-09-12T07:41:19;15.50;99.90
7360;DHT22;3720;48.274;7.796;2022-09-12T07:43:55;15.70;99.90
7360;DHT22;3720;48.274;7.796;2022-09-12T07:46:28;15.70;99.90
7360;DHT22;3720;48.274;7.796;2022-09-12T07:49:01;15.90;99.90
7360;DHT22;3720;48.274;7.796;2022-09-12T07:51:33;16.00;99.90
7360;DHT22;3720;48.274;7.796;2022-09-12T07:54:07;16.10;99.90
7360;DHT22;3720;48.274;7.796;2022-09-12T07:56:39;16.20;99.90
7360;DHT22;3720;48.274;7.796;2022-09-12T07:59:14;16.40;99.90
7360;DHT22;3720;48.274;7.796;2022-09-12T08:01:46;16.50;99.90
7360;DHT22;3720;48.274;7.796;2022-09-12T08:04:18;16.60;99.90
7360;DHT22;3720;48.274;7.796;2022-09-12T08:06:50;16.70;99.90
7360;DHT22;3720;48.274;7.796;2022-09-12T08:09:22;16.80;99.90
7360;DHT22;3720;48.274;7.796;2022-09-12T08:11:54;17.10;99.90
7360;DHT22;3720;48.274;7.796;2022-09-12T08:14:28;17.20;99.90
7360;DHT22;3720;48.274;7.796;2022-09-12T08:17:00;17.30;99.90
7360;DHT22;3720;48.274;7.796;2022-09-12T08:19:32;17.40;99.90
7360;DHT22;3720;48.274;7.796;2022-09-12T08:22:03;17.40;99.90
7360;DHT22;3720;48.274;7.796;2022-09-12T08:24:36;17.50;99.90
7360;DHT22;3720;48.274;7.796;2022-09-12T08:27:08;17.60;99.90
7360;DHT22;3720;48.274;7.796;2022-09-12T08:29:42;17.70;99.90
7360;DHT22;3720;48.274;7.796;2022-09-12T08:32:14;17.80;99.90
7360;DHT22;3720;48.274;7.796;2022-09-12T08:34:46;17.90;99.90
7360;DHT22;3720;48.274;7.796;2022-09-12T08:37:18;18.00;99.90
7360;DHT22;3720;48.274;7.796;2022-09-12T08:39:50;18.00;99.90
7360;DHT22;3720;48.274;7.796;2022-09-12T08:42:27;18.10;99.90
7360;DHT22;3720;48.274;7.796;2022-09-12T08:45:20;18.30;99.90
7360;DHT22;3720;48.274;7.796;2022-09-12T08:47:55;18.40;99.90
7360;DHT22;3720;48.274;7.796;2022-09-12T08:50:26;18.50;99.90
7360;DHT22;3720;48.274;7.796;2022-09-12T08:53:02;18.60;99.90
7360;DHT22;3720;48.274;7.796;2022-09-12T08:55:37;18.80;99.90
7360;DHT22;3720;48.274;7.796;2022-09-12T08:58:13;18.90;99.90
7360;DHT22;3720;48.274;7.796;2022-09-12T09:00:51;19.00;99.90
7360;DHT22;3720;48.274;7.796;2022-09-12T09:06:45;19.20;99.90
7360;DHT22;3720;48.274;7.796;2022-09-12T09:09:29;19.40;99.90
7360;DHT22;3720;48.274;7.796;2022-09-12T09:12:14;19.50;99.90
7360;DHT22;3720;48.274;7.796;2022-09-12T09:15:02;19.60;99.90
7360;DHT22;3720;48.274;7.796;2022-09-12T09:17:41;19.80;99.90
7360;DHT22;3720;48.274;7.796;2022-09-12T09:20:21;19.90;99.90
7360;DHT22;3720;48.274;7.796;2022-09-12T09:22:57;20.00;99.90
7360;DHT22;3720;48.274;7.796;2022-09-12T09:25:41;20.10;99.90
7360;DHT22;3720;48.274;7.796;2022-09-12T09:28:19;20.20;99.90
7360;DHT22;3720;48.274;7.796;2022-09-12T09:30:51;20.40;99.90
7360;DHT22;3720;48.274;7.796;2022-09-12T09:33:28;20.60;99.90
7360;DHT22;3720;48.274;7.796;2022-09-12T09:36:09;20.70;99.90
7360;DHT22;3720;48.274;7.796;2022-09-12T09:38:48;20.90;99.90
7360;DHT22;3720;48.274;7.796;2022-09-12T09:41:41;20.90;99.90
7360;DHT22;3720;48.274;7.796;2022-09-12T09:44:16;21.00;99.90
7360;DHT22;3720;48.274;7.796;2022-09-12T09:46:53;21.20;99.90
7360;DHT22;3720;48.274;7.796;2022-09-12T09:49:30;21.40;99.90
7360;DHT22;3720;48.274;7.796;2022-09-12T09:52:04;21.60;99.90
7360;DHT22;3720;48.274;7.796;2022-09-12T09:54:38;21.70;99.90
7360;DHT22;3720;48.274;7.796;2022-09-12T09:57:40;21.90;99.90
7360;DHT22;3720;48.274;7.796;2022-09-12T10:00:29;22.10;99.90
7360;DHT22;3720;48.274;7.796;2022-09-12T10:06:01;22.40;99.90
7360;DHT22;3720;48.274;7.796;2022-09-12T10:08:36;22.60;99.90
7360;DHT22;3720;48.274;7.796;2022-09-12T10:11:19;22.80;99.90
7360;DHT22;3720;48.274;7.796;2022-09-12T10:13:54;23.00;99.90
7360;DHT22;3720;48.274;7.796;2022-09-12T10:16:29;23.20;99.90
7360;DHT22;3720;48.274;7.796;2022-09-12T10:19:02;23.50;99.90
7360;DHT22;3720;48.274;7.796;2022-09-12T10:21:40;23.90;99.90
7360;DHT22;3720;48.274;7.796;2022-09-12T10:24:20;24.20;99.90
7360;DHT22;3720;48.274;7.796;2022-09-12T10:26:57;24.50;99.90
7360;DHT22;3720;48.274;7.796;2022-09-12T10:29:40;24.70;99.90
7360;DHT22;3720;48.274;7.796;2022-09-12T10:32:20;24.90;99.90
7360;DHT22;3720;48.274;7.796;2022-09-12T10:34:56;25.20;99.90
7360;DHT22;3720;48.274;7.796;2022-09-12T10:37:33;25.40;99.90
7360;DHT22;3720;48.274;7.796;2022-09-12T10:40:19;25.60;99.90
7360;DHT22;3720;48.274;7.796;2022-09-12T10:42:53;25.80;99.90
7360;DHT22;3720;48.274;7.796;2022-09-12T10:45:28;26.10;99.90
7360;DHT22;3720;48.274;7.796;2022-09-12T10:48:02;26.40;99.90
7360;DHT22;3720;48.274;7.796;2022-09-12T10:50:38;26.60;99.90
7360;DHT22;3720;48.274;7.796;2022-09-12T10:53:19;26.90;99.90
7360;DHT22;3720;48.274;7.796;2022-09-12T10:56:13;27.10;99.90
7360;DHT22;3720;48.274;7.796;2022-09-12T10:59:00;27.40;99.90
7360;DHT22;3720;48.274;7.796;2022-09-12T11:01:38;27.70;99.90
7360;DHT22;3720;48.274;7.796;2022-09-12T11:04:22;27.90;99.90
7360;DHT22;3720;48.274;7.796;2022-09-12T11:07:09;28.20;99.90
7360;DHT22;3720;48.274;7.796;2022-09-12T11:09:49;28.50;99.90
7360;DHT22;3720;48.274;7.796;2022-09-12T11:12:30;28.60;99.90
7360;DHT22;3720;48.274;7.796;2022-09-12T11:15:21;28.80;99.90
7360;DHT22;3720;48.274;7.796;2022-09-12T11:18:00;28.90;99.80
7360;DHT22;3720;48.274;7.796;2022-09-12T11:21:01;29.10;99.70
7360;DHT22;3720;48.274;7.796;2022-09-12T11:23:55;29.40;97.70
7360;DHT22;3720;48.274;7.796;2022-09-12T11:26:53;29.60;96.10
7360;DHT22;3720;48.274;7.796;2022-09-12T11:29:37;29.80;96.20
7360;DHT22;3720;48.274;7.796;2022-09-12T11:32:41;29.90;94.40
7360;DHT22;3720;48.274;7.796;2022-09-12T11:35:20;30.00;92.80
7360;DHT22;3720;48.274;7.796;2022-09-12T11:38:33;30.10;94.10
7360;DHT22;3720;48.274;7.796;2022-09-12T11:41:12;30.30;89.20
7360;DHT22;3720;48.274;7.796;2022-09-12T11:43:49;30.40;91.20
7360;DHT22;3720;48.274;7.796;2022-09-12T11:46:28;30.50;87.90
7360;DHT22;3720;48.274;7.796;2022-09-12T11:49:09;30.50;86.20
7360;DHT22;3720;48.274;7.796;2022-09-12T11:51:51;30.40;85.60
7360;DHT22;3720;48.274;7.796;2022-09-12T11:54:29;30.50;85.70
7360;DHT22;3720;48.274;7.796;2022-09-12T11:57:10;30.70;84.30
7360;DHT22;3720;48.274;7.796;2022-09-12T11:59:50;30.80;87.60
7360;DHT22;3720;48.274;7.796;2022-09-12T12:02:25;31.10;85.50
7360;DHT22;3720;48.274;7.796;2022-09-12T12:05:13;31.10;84.70
7360;DHT22;3720;48.274;7.796;2022-09-12T12:07:51;31.10;81.70
7360;DHT22;3720;48.274;7.796;2022-09-12T12:10:30;31.10;80.70
7360;DHT22;3720;48.274;7.796;2022-09-12T12:13:07;31.30;79.60
7360;DHT22;3720;48.274;7.796;2022-09-12T12:15:46;31.30;78.60
7360;DHT22;3720;48.274;7.796;2022-09-12T12:18:22;31.20;76.90
7360;DHT22;3720;48.274;7.796;2022-09-12T12:20:56;31.10;75.60
7360;DHT22;3720;48.274;7.796;2022-09-12T12:24:02;31.10;76.10
7360;DHT22;3720;48.274;7.796;2022-09-12T12:26:44;31.00;72.90
7360;DHT22;3720;48.274;7.796;2022-09-12T12:29:41;31.10;72.70
7360;DHT22;3720;48.274;7.796;2022-09-12T12:32:27;31.20;74.90
7360;DHT22;3720;48.274;7.796;2022-09-12T12:35:37;31.20;71.90
7360;DHT22;3720;48.274;7.796;2022-09-12T12:38:27;31.20;70.50
7360;DHT22;3720;48.274;7.796;2022-09-12T12:44:46;31.60;67.50
7360;DHT22;3720;48.274;7.796;2022-09-12T12:47:20;31.70;68.20
7360;DHT22;3720;48.274;7.796;2022-09-12T12:49:57;31.80;66.00
7360;DHT22;3720;48.274;7.796;2022-09-12T12:52:30;31.90;67.90
7360;DHT22;3720;48.274;7.796;2022-09-12T12:55:03;31.90;66.10
7360;DHT22;3720;48.274;7.796;2022-09-12T12:57:53;31.90;64.50
7360;DHT22;3720;48.274;7.796;2022-09-12T13:00:32;32.10;65.90
7360;DHT22;3720;48.274;7.796;2022-09-12T13:03:10;32.00;66.40
7360;DHT22;3720;48.274;7.796;2022-09-12T13:05:54;32.20;65.50
7360;DHT22;3720;48.274;7.796;2022-09-12T13:08:30;32.40;63.70
7360;DHT22;3720;48.274;7.796;2022-09-12T13:11:07;32.50;63.30
7360;DHT22;3720;48.274;7.796;2022-09-12T13:13:43;32.70;63.70
7360;DHT22;3720;48.274;7.796;2022-09-12T13:16:29;32.80;58.90
7360;DHT22;3720;48.274;7.796;2022-09-12T13:19:03;32.60;57.50
7360;DHT22;3720;48.274;7.796;2022-09-12T13:21:37;32.60;58.60
7360;DHT22;3720;48.274;7.796;2022-09-12T13:24:13;32.60;59.50
7360;DHT22;3720;48.274;7.796;2022-09-12T13:26:46;32.60;59.10
7360;DHT22;3720;48.274;7.796;2022-09-12T13:29:20;32.70;58.00
7360;DHT22;3720;48.274;7.796;2022-09-12T13:31:55;32.80;57.10
7360;DHT22;3720;48.274;7.796;2022-09-12T13:34:29;33.00;58.00
7360;DHT22;3720;48.274;7.796;2022-09-12T13:37:21;33.20;54.40
7360;DHT22;3720;48.274;7.796;2022-09-12T13:40:04;33.20;57.10
7360;DHT22;3720;48.274;7.796;2022-09-12T13:42:46;33.10;55.40
7360;DHT22;3720;48.274;7.796;2022-09-12T13:45:21;33.00;55.50
7360;DHT22;3720;48.274;7.796;2022-09-12T13:47:56;32.90;53.40
7360;DHT22;3720;48.274;7.796;2022-09-12T13:50:31;32.90;55.50
7360;DHT22;3720;48.274;7.796;2022-09-12T13:53:10;32.50;54.20
7360;DHT22;3720;48.274;7.796;2022-09-12T13:55:46;32.20;54.30
7360;DHT22;3720;48.274;7.796;2022-09-12T13:58:21;32.20;54.30
7360;DHT22;3720;48.274;7.796;2022-09-12T14:01:01;32.30;53.30
7360;DHT22;3720;48.274;7.796;2022-09-12T14:03:38;32.40;56.10
7360;DHT22;3720;48.274;7.796;2022-09-12T14:06:35;32.50;53.80
7360;DHT22;3720;48.274;7.796;2022-09-12T14:09:13;32.50;54.20
7360;DHT22;3720;48.274;7.796;2022-09-12T14:11:46;32.60;53.80
7360;DHT22;3720;48.274;7.796;2022-09-12T14:14:28;32.80;54.90
7360;DHT22;3720;48.274;7.796;2022-09-12T14:17:14;32.80;55.50
7360;DHT22;3720;48.274;7.796;2022-09-12T14:19:46;33.00;54.60
7360;DHT22;3720;48.274;7.796;2022-09-12T14:22:18;33.20;54.90
7360;DHT22;3720;48.274;7.796;2022-09-12T14:24:52;33.40;53.30
7360;DHT22;3720;48.274;7.796;2022-09-12T14:27:27;33.40;51.70
7360;DHT22;3720;48.274;7.796;2022-09-12T14:30:03;33.50;52.40
7360;DHT22;3720;48.274;7.796;2022-09-12T14:32:36;33.30;49.70
7360;DHT22;3720;48.274;7.796;2022-09-12T14:35:19;33.20;51.60
7360;DHT22;3720;48.274;7.796;2022-09-12T14:37:51;32.60;50.80
7360;DHT22;3720;48.274;7.796;2022-09-12T14:40:25;32.40;51.10
7360;DHT22;3720;48.274;7.796;2022-09-12T14:42:57;32.20;50.30
7360;DHT22;3720;48.274;7.796;2022-09-12T14:45:30;32.20;51.00
7360;DHT22;3720;48.274;7.796;2022-09-12T14:48:03;32.40;52.30
7360;DHT22;3720;48.274;7.796;2022-09-12T14:50:35;32.60;52.40
7360;DHT22;3720;48.274;7.796;2022-09-12T14:53:23;32.90;51.80
7360;DHT22;3720;48.274;7.796;2022-09-12T14:56:05;33.20;51.00
7360;DHT22;3720;48.274;7.796;2022-09-12T14:58:39;33.10;50.00
7360;DHT22;3720;48.274;7.796;2022-09-12T15:01:23;32.80;50.00
7360;DHT22;3720;48.274;7.796;2022-09-12T15:03:55;32.80;49.40
7360;DHT22;3720;48.274;7.796;2022-09-12T15:06:28;32.80;49.70
7360;DHT22;3720;48.274;7.796;2022-09-12T15:09:03;32.80;49.30
7360;DHT22;3720;48.274;7.796;2022-09-12T15:11:37;32.80;48.20
7360;DHT22;3720;48.274;7.796;2022-09-12T15:14:12;32.70;47.50
7360;DHT22;3720;48.274;7.796;2022-09-12T15:16:44;32.50;47.40
7360;DHT22;3720;48.274;7.796;2022-09-12T15:19:16;32.50;47.60
7360;DHT22;3720;48.274;7.796;2022-09-12T15:21:48;32.60;49.20
7360;DHT22;3720;48.274;7.796;2022-09-12T15:24:20;32.80;49.20
7360;DHT22;3720;48.274;7.796;2022-09-12T15:26:53;32.90;54.00
7360;DHT22;3720;48.274;7.796;2022-09-12T15:29:26;32.90;53.90
7360;DHT22;3720;48.274;7.796;2022-09-12T15:31:58;32.80;53.30
7360;DHT22;3720;48.274;7.796;2022-09-12T15:34:30;32.80;53.40
7360;DHT22;3720;48.274;7.796;2022-09-12T15:37:04;32.70;53.40
7360;DHT22;3720;48.274;7.796;2022-09-12T15:39:36;32.60;53.10
7360;DHT22;3720;48.274;7.796;2022-09-12T15:42:10;32.40;52.10
7360;DHT22;3720;48.274;7.796;2022-09-12T15:44:42;32.10;50.00
7360;DHT22;3720;48.274;7.796;2022-09-12T15:47:14;31.80;51.70
7360;DHT22;3720;48.274;7.796;2022-09-12T15:49:46;31.50;52.20
7360;DHT22;3720;48.274;7.796;2022-09-12T15:52:18;31.10;53.30
7360;DHT22;3720;48.274;7.796;2022-09-12T15:54:50;31.10;53.80
7360;DHT22;3720;48.274;7.796;2022-09-12T15:57:23;31.10;53.50
7360;DHT22;3720;48.274;7.796;2022-09-12T15:59:55;31.00;51.70
7360;DHT22;3720;48.274;7.796;2022-09-12T16:02:27;31.00;52.40
7360;DHT22;3720;48.274;7.796;2022-09-12T16:04:59;30.90;52.20
7360;DHT22;3720;48.274;7.796;2022-09-12T16:07:31;30.80;53.60
7360;DHT22;3720;48.274;7.796;2022-09-12T16:10:04;30.70;55.10
7360;DHT22;3720;48.274;7.796;2022-09-12T16:12:37;30.60;56.90
7360;DHT22;3720;48.274;7.796;2022-09-12T16:15:12;30.60;57.00
7360;DHT22;3720;48.274;7.796;2022-09-12T16:17:45;30.50;57.70
7360;DHT22;3720;48.274;7.796;2022-09-12T16:20:17;30.50;58.60
7360;DHT22;3720;48.274;7.796;2022-09-12T16:22:50;30.30;59.80
7360;DHT22;3720;48.274;7.796;2022-09-12T16:25:22;30.10;60.40
7360;DHT22;3720;48.274;7.796;2022-09-12T16:27:56;30.00;61.10
7360;DHT22;3720;48.274;7.796;2022-09-12T16:30:28;30.10;62.10
7360;DHT22;3720;48.274;7.796;2022-09-12T16:33:00;30.20;62.30
7360;DHT22;3720;48.274;7.796;2022-09-12T16:35:32;30.10;62.60
7360;DHT22;3720;48.274;7.796;2022-09-12T16:38:04;30.10;63.00
7360;DHT22;3720;48.274;7.796;2022-09-12T16:40:36;30.00;63.60
7360;DHT22;3720;48.274;7.796;2022-09-12T16:43:09;29.90;63.30
7360;DHT22;3720;48.274;7.796;2022-09-12T16:45:41;29.80;63.30
7360;DHT22;3720;48.274;7.796;2022-09-12T16:48:12;29.60;63.80
7360;DHT22;3720;48.274;7.796;2022-09-12T16:50:50;29.40;64.90
7360;DHT22;3720;48.274;7.796;2022-09-12T16:53:26;29.20;66.40
7360;DHT22;3720;48.274;7.796;2022-09-12T16:56:00;28.90;66.80
7360;DHT22;3720;48.274;7.796;2022-09-12T16:58:34;28.70;67.10
7360;DHT22;3720;48.274;7.796;2022-09-12T17:01:08;28.60;68.90
7360;DHT22;3720;48.274;7.796;2022-09-12T17:03:41;28.50;68.10
7360;DHT22;3720;48.274;7.796;2022-09-12T17:06:15;28.40;69.90
7360;DHT22;3720;48.274;7.796;2022-09-12T17:08:49;28.40;69.70
7360;DHT22;3720;48.274;7.796;2022-09-12T17:11:23;28.30;70.30
7360;DHT22;3720;48.274;7.796;2022-09-12T17:13:58;28.30;71.50
7360;DHT22;3720;48.274;7.796;2022-09-12T17:16:31;28.20;71.90